sensor_id;sensor_type;location;lat;lon;timestamp;pressure;altitude;pressure_sealevel;temperature;humidity
28935;BME280;16044;52.726;-2.108;2023-03-14T00:00:11;97886.34;;;5.39;98.41
28935;BME280;16044;52.726;-2.108;2023-03-14T00:02:40;97878.06;;;5.34;98.77
28935;BME280;16044;52.726;-2.108;2023-03-14T00:05:08;97895.00;;;5.27;99.29
28935;BME280;16044;52.726;-2.108;2023-03-14T00:07:37;97886.72;;;5.29;99.37
28935;BME280;16044;52.726;-2.108;2023-03-14T00:10:09;97893.13;;;5.35;99.66
28935;BME280;16044;52.726;-2.108;2023-03-14T00:12:37;97902.66;;;5.37;99.45
28935;BME280;16044;52.726;-2.108;2023-03-14T00:15:05;97906.16;;;5.38;98.70
28935;BME280;16044;52.726;-2.108;2023-03-14T00:17:34;97908.22;;;5.36;98.35
28935;BME280;16044;52.726;-2.108;2023-03-14T00:20:03;97911.72;;;5.36;97.93
28935;BME280;16044;52.726;-2.108;2023-03-14T00:22:35;97907.81;;;5.25;97.70
28935;BME280;16044;52.726;-2.108;2023-03-14T00:25:03;97913.19;;;5.25;97.15
28935;BME280;16044;52.726;-2.108;2023-03-14T00:27:32;97919.78;;;5.16;97.01
28935;BME280;16044;52.726;-2.108;2023-03-14T00:29:59;97916.44;;;5.01;97.13
28935;BME280;16044;52.726;-2.108;2023-03-14T00:32:27;97925.53;;;5.00;97.32
28935;BME280;16044;52.726;-2.108;2023-03-14T00:34:54;97938.53;;;4.96;97.41
28935;BME280;16044;52.726;-2.108;2023-03-14T00:37:21;97942.66;;;4.85;97.94
28935;BME280;16044;52.726;-2.108;2023-03-14T00:39:48;97950.31;;;4.88;97.78
28935;BME280;16044;52.726;-2.108;2023-03-14T00:42:15;97956.88;;;4.79;97.80
28935;BME280;16044;52.726;-2.108;2023-03-14T00:44:41;97972.97;;;4.79;97.55
28935;BME280;16044;52.726;-2.108;2023-03-14T00:47:08;97969.88;;;4.76;97.62
28935;BME280;16044;52.726;-2.108;2023-03-14T00:49:35;97984.97;;;4.83;97.79
28935;BME280;16044;52.726;-2.108;2023-03-14T00:52:02;98001.06;;;4.83;97.80
28935;BME280;16044;52.726;-2.108;2023-03-14T00:54:29;97999.81;;;4.79;97.98
28935;BME280;16044;52.726;-2.108;2023-03-14T00:56:56;98001.50;;;4.80;97.65
28935;BME280;16044;52.726;-2.108;2023-03-14T00:59:23;98002.69;;;4.78;97.62
28935;BME280;16044;52.726;-2.108;2023-03-14T01:01:49;98005.19;;;4.79;97.15
28935;BME280;16044;52.726;-2.108;2023-03-14T01:04:16;98003.91;;;4.68;97.06
28935;BME280;16044;52.726;-2.108;2023-03-14T01:06:43;98010.50;;;4.66;96.72
28935;BME280;16044;52.726;-2.108;2023-03-14T01:09:10;98007.53;;;4.47;96.42
28935;BME280;16044;52.726;-2.108;2023-03-14T01:11:37;98015.38;;;4.49;95.47
28935;BME280;16044;52.726;-2.108;2023-03-14T01:14:04;98016.97;;;4.37;95.63
28935;BME280;16044;52.726;-2.108;2023-03-14T01:16:33;98016.31;;;4.35;95.16
28935;BME280;16044;52.726;-2.108;2023-03-14T01:19:02;98014.44;;;4.28;95.45
28935;BME280;16044;52.726;-2.108;2023-03-14T01:21:34;98016.00;;;4.16;95.27
28935;BME280;16044;52.726;-2.108;2023-03-14T01:24:03;98009.03;;;4.22;94.38
28935;BME280;16044;52.726;-2.108;2023-03-14T01:26:33;98037.06;;;4.19;94.03
28935;BME280;16044;52.726;-2.108;2023-03-14T01:29:02;98040.34;;;4.15;93.96
28935;BME280;16044;52.726;-2.108;2023-03-14T01:31:30;98052.47;;;4.10;93.41
28935;BME280;16044;52.726;-2.108;2023-03-14T01:33:57;98041.50;;;4.05;93.74
28935;BME280;16044;52.726;-2.108;2023-03-14T01:36:24;98050.16;;;4.01;93.32
28935;BME280;16044;52.726;-2.108;2023-03-14T01:38:51;98049.94;;;4.02;92.17
28935;BME280;16044;52.726;-2.108;2023-03-14T01:41:21;98058.81;;;4.03;91.93
28935;BME280;16044;52.726;-2.108;2023-03-14T01:43:50;98060.66;;;4.02;91.73
28935;BME280;16044;52.726;-2.108;2023-03-14T01:46:19;98075.22;;;3.93;91.88
28935;BME280;16044;52.726;-2.108;2023-03-14T01:57:15;98108.09;;;3.80;90.16
28935;BME280;16044;52.726;-2.108;2023-03-14T01:59:40;98115.44;;;3.71;90.69
28935;BME280;16044;52.726;-2.108;2023-03-14T02:02:12;98112.59;;;3.80;90.08
28935;BME280;16044;52.726;-2.108;2023-03-14T02:04:39;98118.81;;;3.80;89.62
28935;BME280;16044;52.726;-2.108;2023-03-14T02:07:15;98135.63;;;3.74;89.34
28935;BME280;16044;52.726;-2.108;2023-03-14T02:09:44;98141.00;;;3.74;89.16
28935;BME280;16044;52.726;-2.108;2023-03-14T02:12:14;98146.16;;;3.76;88.94
28935;BME280;16044;52.726;-2.108;2023-03-14T02:14:43;98155.44;;;3.73;89.03
28935;BME280;16044;52.726;-2.108;2023-03-14T02:17:16;98149.63;;;3.69;89.03
28935;BME280;16044;52.726;-2.108;2023-03-14T02:22:20;98166.50;;;3.70;89.43
28935;BME280;16044;52.726;-2.108;2023-03-14T02:24:54;98175.66;;;3.76;89.15
28935;BME280;16044;52.726;-2.108;2023-03-14T02:27:22;98179.16;;;3.76;89.50
28935;BME280;16044;52.726;-2.108;2023-03-14T02:29:53;98184.25;;;3.71;89.66
28935;BME280;16044;52.726;-2.108;2023-03-14T02:32:24;98199.06;;;3.67;90.25
28935;BME280;16044;52.726;-2.108;2023-03-14T02:34:56;98190.81;;;3.68;90.64
28935;BME280;16044;52.726;-2.108;2023-03-14T02:37:37;98202.19;;;3.70;90.95
28935;BME280;16044;52.726;-2.108;2023-03-14T02:40:09;98203.19;;;3.69;91.24
28935;BME280;16044;52.726;-2.108;2023-03-14T02:42:36;98203.19;;;3.69;91.74
28935;BME280;16044;52.726;-2.108;2023-03-14T02:47:40;98203.13;;;3.63;92.13
28935;BME280;16044;52.726;-2.108;2023-03-14T02:50:13;98209.50;;;3.62;91.81
28935;BME280;16044;52.726;-2.108;2023-03-14T02:52:42;98224.34;;;3.64;92.12
28935;BME280;16044;52.726;-2.108;2023-03-14T02:55:09;98234.38;;;3.56;93.60
28935;BME280;16044;52.726;-2.108;2023-03-14T02:57:36;98255.03;;;3.62;93.76
28935;BME280;16044;52.726;-2.108;2023-03-14T03:00:04;98266.22;;;3.65;94.76
28935;BME280;16044;52.726;-2.108;2023-03-14T03:02:31;98265.47;;;3.71;95.35
28935;BME280;16044;52.726;-2.108;2023-03-14T03:04:58;98270.72;;;3.80;95.81
28935;BME280;16044;52.726;-2.108;2023-03-14T03:07:25;98267.84;;;3.81;96.68
28935;BME280;16044;52.726;-2.108;2023-03-14T03:09:52;98275.97;;;3.88;97.30
28935;BME280;16044;52.726;-2.108;2023-03-14T03:12:19;98284.50;;;3.77;99.05
28935;BME280;16044;52.726;-2.108;2023-03-14T03:14:46;98281.69;;;3.85;99.97
28935;BME280;16044;52.726;-2.108;2023-03-14T03:17:13;98291.91;;;3.75;100.00
28935;BME280;16044;52.726;-2.108;2023-03-14T03:19:40;98300.94;;;3.74;100.00
28935;BME280;16044;52.726;-2.108;2023-03-14T03:22:07;98311.38;;;3.68;100.00
28935;BME280;16044;52.726;-2.108;2023-03-14T03:24:34;98320.44;;;3.67;100.00
28935;BME280;16044;52.726;-2.108;2023-03-14T03:27:01;98319.63;;;3.67;100.00
28935;BME280;16044;52.726;-2.108;2023-03-14T03:29:28;98330.88;;;3.62;100.00
28935;BME280;16044;52.726;-2.108;2023-03-14T03:31:55;98360.72;;;3.59;100.00
28935;BME280;16044;52.726;-2.108;2023-03-14T03:34:21;98363.47;;;3.51;100.00
28935;BME280;16044;52.726;-2.108;2023-03-14T03:36:48;98394.22;;;3.55;100.00
28935;BME280;16044;52.726;-2.108;2023-03-14T03:39:15;98395.88;;;3.41;100.00
28935;BME280;16044;52.726;-2.108;2023-03-14T03:41:42;98412.69;;;3.35;100.00
28935;BME280;16044;52.726;-2.108;2023-03-14T03:44:09;98411.19;;;3.32;100.00
28935;BME280;16044;52.726;-2.108;2023-03-14T03:46:36;98418.56;;;3.30;100.00
28935;BME280;16044;52.726;-2.108;2023-03-14T03:49:02;98420.59;;;3.28;100.00
28935;BME280;16044;52.726;-2.108;2023-03-14T03:51:29;98430.00;;;3.24;100.00
28935;BME280;16044;52.726;-2.108;2023-03-14T03:53:56;98439.34;;;3.28;100.00
28935;BME280;16044;52.726;-2.108;2023-03-14T03:56:23;98440.38;;;3.27;100.00
28935;BME280;16044;52.726;-2.108;2023-03-14T03:58:50;98447.84;;;3.32;100.00
28935;BME280;16044;52.726;-2.108;2023-03-14T04:01:17;98452.69;;;3.37;100.00
28935;BME280;16044;52.726;-2.108;2023-03-14T04:03:44;98465.03;;;3.38;100.00
28935;BME280;16044;52.726;-2.108;2023-03-14T04:06:12;98466.34;;;3.42;100.00
28935;BME280;16044;52.726;-2.108;2023-03-14T04:08:40;98476.22;;;3.41;100.00
28935;BME280;16044;52.726;-2.108;2023-03-14T04:11:07;98481.03;;;3.46;100.00
28935;BME280;16044;52.726;-2.108;2023-03-14T04:13:34;98496.75;;;3.49;100.00
28935;BME280;16044;52.726;-2.108;2023-03-14T04:16:01;98502.25;;;3.56;100.00
28935;BME280;16044;52.726;-2.108;2023-03-14T04:18:28;98515.06;;;3.60;100.00
28935;BME280;16044;52.726;-2.108;2023-03-14T04:20:57;98517.09;;;3.58;100.00
28935;BME280;16044;52.726;-2.108;2023-03-14T04:23:25;98531.16;;;3.60;100.00
28935;BME280;16044;52.726;-2.108;2023-03-14T04:25:52;98530.41;;;3.66;100.00
28935;BME280;16044;52.726;-2.108;2023-03-14T04:28:20;98538.53;;;3.58;100.00
28935;BME280;16044;52.726;-2.108;2023-03-14T04:30:47;98549.72;;;3.62;100.00
28935;BME280;16044;52.726;-2.108;2023-03-14T04:33:13;98560.97;;;3.57;100.00
28935;BME280;16044;52.726;-2.108;2023-03-14T04:35:47;98570.69;;;3.58;100.00
28935;BME280;16044;52.726;-2.108;2023-03-14T04:38:14;98587.47;;;3.52;100.00
28935;BME280;16044;52.726;-2.108;2023-03-14T04:40:42;98596.09;;;3.39;100.00
28935;BME280;16044;52.726;-2.108;2023-03-14T04:43:10;98602.34;;;3.31;100.00
28935;BME280;16044;52.726;-2.108;2023-03-14T04:45:40;98610.06;;;3.26;100.00
28935;BME280;16044;52.726;-2.108;2023-03-14T04:48:08;98619.44;;;3.22;100.00
28935;BME280;16044;52.726;-2.108;2023-03-14T04:50:36;98625.69;;;3.15;100.00
28935;BME280;16044;52.726;-2.108;2023-03-14T04:53:02;98627.34;;;3.16;100.00
28935;BME280;16044;52.726;-2.108;2023-03-14T04:55:31;98642.56;;;3.23;100.00
28935;BME280;16044;52.726;-2.108;2023-03-14T04:57:59;98645.56;;;3.20;100.00
28935;BME280;16044;52.726;-2.108;2023-03-14T05:00:26;98658.97;;;3.20;100.00
28935;BME280;16044;52.726;-2.108;2023-03-14T05:02:52;98660.94;;;3.26;100.00
28935;BME280;16044;52.726;-2.108;2023-03-14T05:05:19;98670.00;;;3.17;100.00
28935;BME280;16044;52.726;-2.108;2023-03-14T05:07:47;98680.59;;;3.10;100.00
28935;BME280;16044;52.726;-2.108;2023-03-14T05:10:14;98688.75;;;3.17;100.00
28935;BME280;16044;52.726;-2.108;2023-03-14T05:12:41;98689.75;;;3.16;100.00
28935;BME280;16044;52.726;-2.108;2023-03-14T05:15:08;98699.16;;;3.12;100.00
28935;BME280;16044;52.726;-2.108;2023-03-14T05:17:35;98712.22;;;3.07;100.00
28935;BME280;16044;52.726;-2.108;2023-03-14T05:20:04;98710.91;;;3.03;100.00
28935;BME280;16044;52.726;-2.108;2023-03-14T05:22:35;98725.28;;;3.02;100.00
28935;BME280;16044;52.726;-2.108;2023-03-14T05:25:02;98730.66;;;2.93;100.00
28935;BME280;16044;52.726;-2.108;2023-03-14T05:27:29;98741.00;;;2.97;100.00
28935;BME280;16044;52.726;-2.108;2023-03-14T05:29:56;98760.44;;;2.90;100.00
28935;BME280;16044;52.726;-2.108;2023-03-14T05:32:23;98768.13;;;2.85;100.00
28935;BME280;16044;52.726;-2.108;2023-03-14T05:34:50;98777.34;;;2.75;100.00
28935;BME280;16044;52.726;-2.108;2023-03-14T05:37:17;98783.03;;;2.71;100.00
28935;BME280;16044;52.726;-2.108;2023-03-14T05:39:45;98793.56;;;2.65;100.00
28935;BME280;16044;52.726;-2.108;2023-03-14T05:42:12;98801.94;;;2.62;100.00
28935;BME280;16044;52.726;-2.108;2023-03-14T05:44:39;98800.75;;;2.56;100.00
28935;BME280;16044;52.726;-2.108;2023-03-14T05:47:06;98812.28;;;2.57;100.00
28935;BME280;16044;52.726;-2.108;2023-03-14T05:49:33;98822.97;;;2.57;100.00
28935;BME280;16044;52.726;-2.108;2023-03-14T05:52:00;98820.97;;;2.59;100.00
28935;BME280;16044;52.726;-2.108;2023-03-14T05:54:27;98830.69;;;2.60;100.00
28935;BME280;16044;52.726;-2.108;2023-03-14T05:56:54;98839.88;;;2.57;100.00
28935;BME280;16044;52.726;-2.108;2023-03-14T05:59:21;98846.72;;;2.60;100.00
28935;BME280;16044;52.726;-2.108;2023-03-14T06:01:48;98855.59;;;2.60;100.00
28935;BME280;16044;52.726;-2.108;2023-03-14T06:04:15;98864.13;;;2.64;100.00
28935;BME280;16044;52.726;-2.108;2023-03-14T06:06:42;98872.13;;;2.64;100.00
28935;BME280;16044;52.726;-2.108;2023-03-14T06:09:09;98879.84;;;2.67;100.00
28935;BME280;16044;52.726;-2.108;2023-03-14T06:11:35;98888.69;;;2.67;100.00
28935;BME280;16044;52.726;-2.108;2023-03-14T06:14:02;98896.22;;;2.72;100.00
28935;BME280;16044;52.726;-2.108;2023-03-14T06:16:29;98901.56;;;2.72;100.00
28935;BME280;16044;52.726;-2.108;2023-03-14T06:18:58;98913.13;;;2.72;100.00
28935;BME280;16044;52.726;-2.108;2023-03-14T06:21:25;98913.75;;;2.66;100.00
28935;BME280;16044;52.726;-2.108;2023-03-14T06:23:52;98930.84;;;2.73;100.00
28935;BME280;16044;52.726;-2.108;2023-03-14T06:26:22;98938.69;;;2.75;100.00
28935;BME280;16044;52.726;-2.108;2023-03-14T06:28:50;98946.41;;;2.78;100.00
28935;BME280;16044;52.726;-2.108;2023-03-14T06:31:17;98958.94;;;2.78;100.00
28935;BME280;16044;52.726;-2.108;2023-03-14T06:33:44;98975.50;;;2.73;100.00
28935;BME280;16044;52.726;-2.108;2023-03-14T06:36:11;98980.16;;;2.71;100.00
28935;BME280;16044;52.726;-2.108;2023-03-14T06:38:38;98985.38;;;2.72;100.00
28935;BME280;16044;52.726;-2.108;2023-03-14T06:41:06;98989.53;;;2.67;100.00
28935;BME280;16044;52.726;-2.108;2023-03-14T06:43:33;98995.03;;;2.57;100.00
28935;BME280;16044;52.726;-2.108;2023-03-14T06:46:00;99001.50;;;2.46;100.00
28935;BME280;16044;52.726;-2.108;2023-03-14T06:48:27;99016.00;;;2.44;100.00
28935;BME280;16044;52.726;-2.108;2023-03-14T06:50:54;99023.88;;;2.45;100.00
28935;BME280;16044;52.726;-2.108;2023-03-14T06:53:21;99031.44;;;2.50;100.00
28935;BME280;16044;52.726;-2.108;2023-03-14T06:55:49;99039.44;;;2.50;100.00
28935;BME280;16044;52.726;-2.108;2023-03-14T06:58:16;99040.94;;;2.44;100.00
28935;BME280;16044;52.726;-2.108;2023-03-14T07:00:44;99042.75;;;2.44;100.00
28935;BME280;16044;52.726;-2.108;2023-03-14T07:03:12;99043.94;;;2.49;100.00
28935;BME280;16044;52.726;-2.108;2023-03-14T07:05:40;99056.34;;;2.50;100.00
28935;BME280;16044;52.726;-2.108;2023-03-14T07:08:08;99062.50;;;2.51;100.00
28935;BME280;16044;52.726;-2.108;2023-03-14T07:10:35;99077.22;;;2.55;100.00
28935;BME280;16044;52.726;-2.108;2023-03-14T07:13:02;99072.75;;;2.56;100.00
28935;BME280;16044;52.726;-2.108;2023-03-14T07:15:30;99094.81;;;2.58;100.00
28935;BME280;16044;52.726;-2.108;2023-03-14T07:17:57;99095.50;;;2.60;100.00
28935;BME280;16044;52.726;-2.108;2023-03-14T07:20:24;99113.28;;;2.69;100.00
28935;BME280;16044;52.726;-2.108;2023-03-14T07:22:51;99129.16;;;2.70;100.00
28935;BME280;16044;52.726;-2.108;2023-03-14T07:25:18;99139.34;;;2.67;100.00
28935;BME280;16044;52.726;-2.108;2023-03-14T07:27:45;99151.41;;;2.71;100.00
28935;BME280;16044;52.726;-2.108;2023-03-14T07:30:15;99159.09;;;2.74;100.00
28935;BME280;16044;52.726;-2.108;2023-03-14T07:32:43;99163.75;;;2.72;100.00
28935;BME280;16044;52.726;-2.108;2023-03-14T07:35:09;99169.75;;;2.66;100.00
28935;BME280;16044;52.726;-2.108;2023-03-14T07:37:36;99183.69;;;2.78;100.00
28935;BME280;16044;52.726;-2.108;2023-03-14T07:40:04;99186.69;;;3.01;100.00
28935;BME280;16044;52.726;-2.108;2023-03-14T07:42:34;99191.19;;;3.35;100.00
28935;BME280;16044;52.726;-2.108;2023-03-14T07:45:01;99197.28;;;3.61;100.00
28935;BME280;16044;52.726;-2.108;2023-03-14T07:47:29;99207.03;;;3.87;100.00
28935;BME280;16044;52.726;-2.108;2023-03-14T07:49:56;99223.28;;;3.85;100.00
28935;BME280;16044;52.726;-2.108;2023-03-14T07:52:23;99220.47;;;4.12;100.00
28935;BME280;16044;52.726;-2.108;2023-03-14T07:54:51;99234.91;;;4.35;99.64
28935;BME280;16044;52.726;-2.108;2023-03-14T07:57:17;99246.13;;;4.30;98.83
28935;BME280;16044;52.726;-2.108;2023-03-14T07:59:44;99243.78;;;4.27;98.18
28935;BME280;16044;52.726;-2.108;2023-03-14T08:02:12;99253.00;;;4.41;97.04
28935;BME280;16044;52.726;-2.108;2023-03-14T08:04:39;99244.44;;;4.46;95.81
28935;BME280;16044;52.726;-2.108;2023-03-14T08:07:07;99256.53;;;4.42;94.51
28935;BME280;16044;52.726;-2.108;2023-03-14T08:09:34;99260.41;;;4.56;93.50
28935;BME280;16044;52.726;-2.108;2023-03-14T08:12:01;99276.16;;;4.51;93.18
28935;BME280;16044;52.726;-2.108;2023-03-14T08:14:28;99290.59;;;4.58;93.12
28935;BME280;16044;52.726;-2.108;2023-03-14T08:16:56;99300.16;;;4.52;93.47
28935;BME280;16044;52.726;-2.108;2023-03-14T08:19:24;99311.72;;;4.53;94.13
28935;BME280;16044;52.726;-2.108;2023-03-14T08:21:51;99318.28;;;4.75;93.94
28935;BME280;16044;52.726;-2.108;2023-03-14T08:24:18;99316.06;;;4.70;93.74
28935;BME280;16044;52.726;-2.108;2023-03-14T08:26:45;99325.16;;;4.69;93.68
28935;BME280;16044;52.726;-2.108;2023-03-14T08:29:11;99340.56;;;4.83;94.50
28935;BME280;16044;52.726;-2.108;2023-03-14T08:31:39;99343.59;;;4.80;93.31
28935;BME280;16044;52.726;-2.108;2023-03-14T08:34:06;99348.97;;;5.05;93.54
28935;BME280;16044;52.726;-2.108;2023-03-14T08:36:33;99360.22;;;5.08;93.40
28935;BME280;16044;52.726;-2.108;2023-03-14T08:39:00;99361.38;;;5.22;92.67
28935;BME280;16044;52.726;-2.108;2023-03-14T08:41:27;99365.69;;;5.40;93.39
28935;BME280;16044;52.726;-2.108;2023-03-14T08:43:54;99380.97;;;5.56;92.76
28935;BME280;16044;52.726;-2.108;2023-03-14T08:46:21;99386.44;;;5.71;93.35
28935;BME280;16044;52.726;-2.108;2023-03-14T08:48:48;99392.81;;;5.78;91.75
28935;BME280;16044;52.726;-2.108;2023-03-14T08:51:14;99398.97;;;5.95;91.41
28935;BME280;16044;52.726;-2.108;2023-03-14T08:53:42;99402.88;;;5.84;91.26
28935;BME280;16044;52.726;-2.108;2023-03-14T08:56:09;99402.53;;;5.95;89.93
28935;BME280;16044;52.726;-2.108;2023-03-14T08:58:37;99408.78;;;5.96;88.32
28935;BME280;16044;52.726;-2.108;2023-03-14T09:01:05;99413.63;;;5.84;88.41
28935;BME280;16044;52.726;-2.108;2023-03-14T09:03:32;99428.13;;;5.75;86.45
28935;BME280;16044;52.726;-2.108;2023-03-14T09:06:04;99421.41;;;5.71;85.73
28935;BME280;16044;52.726;-2.108;2023-03-14T09:08:32;99432.31;;;5.77;86.47
28935;BME280;16044;52.726;-2.108;2023-03-14T09:11:01;99431.81;;;5.74;84.95
28935;BME280;16044;52.726;-2.108;2023-03-14T09:13:28;99435.19;;;5.68;86.39
28935;BME280;16044;52.726;-2.108;2023-03-14T09:15:56;99430.47;;;5.78;86.46
28935;BME280;16044;52.726;-2.108;2023-03-14T09:18:23;99440.72;;;5.74;86.64
28935;BME280;16044;52.726;-2.108;2023-03-14T09:20:50;99445.13;;;5.51;87.24
28935;BME280;16044;52.726;-2.108;2023-03-14T09:23:18;99453.72;;;5.38;86.02
28935;BME280;16044;52.726;-2.108;2023-03-14T09:25:44;99460.41;;;5.42;87.17
28935;BME280;16044;52.726;-2.108;2023-03-14T09:28:11;99459.59;;;5.33;87.50
28935;BME280;16044;52.726;-2.108;2023-03-14T09:30:39;99463.13;;;5.50;88.90
28935;BME280;16044;52.726;-2.108;2023-03-14T09:33:06;99462.09;;;5.51;88.13
28935;BME280;16044;52.726;-2.108;2023-03-14T09:35:34;99470.47;;;5.64;88.41
28935;BME280;16044;52.726;-2.108;2023-03-14T09:38:01;99472.16;;;5.74;88.00
28935;BME280;16044;52.726;-2.108;2023-03-14T09:40:33;99475.00;;;5.80;85.63
28935;BME280;16044;52.726;-2.108;2023-03-14T09:43:02;99480.88;;;5.92;86.12
28935;BME280;16044;52.726;-2.108;2023-03-14T09:45:34;99492.81;;;5.98;85.85
28935;BME280;16044;52.726;-2.108;2023-03-14T09:48:04;99499.88;;;6.07;85.08
28935;BME280;16044;52.726;-2.108;2023-03-14T09:50:53;99506.41;;;6.04;84.43
28935;BME280;16044;52.726;-2.108;2023-03-14T09:53:27;99508.56;;;6.17;83.07
28935;BME280;16044;52.726;-2.108;2023-03-14T09:56:00;99518.16;;;6.12;80.28
28935;BME280;16044;52.726;-2.108;2023-03-14T09:58:26;99527.72;;;6.22;81.06
28935;BME280;16044;52.726;-2.108;2023-03-14T10:00:55;99528.91;;;6.20;81.79
28935;BME280;16044;52.726;-2.108;2023-03-14T10:06:01;99544.50;;;6.33;82.25
28935;BME280;16044;52.726;-2.108;2023-03-14T10:08:28;99546.34;;;6.40;83.03
28935;BME280;16044;52.726;-2.108;2023-03-14T10:10:55;99555.41;;;6.48;81.84
28935;BME280;16044;52.726;-2.108;2023-03-14T10:13:27;99557.44;;;6.46;80.43
28935;BME280;16044;52.726;-2.108;2023-03-14T10:15:59;99571.88;;;6.53;79.78
28935;BME280;16044;52.726;-2.108;2023-03-14T10:18:30;99583.28;;;6.63;79.60
28935;BME280;16044;52.726;-2.108;2023-03-14T10:21:20;99602.81;;;6.65;81.47
28935;BME280;16044;52.726;-2.108;2023-03-14T10:23:51;99600.44;;;6.70;78.41
28935;BME280;16044;52.726;-2.108;2023-03-14T10:26:23;99597.38;;;6.81;74.78
28935;BME280;16044;52.726;-2.108;2023-03-14T10:29:00;99596.16;;;6.92;75.86
28935;BME280;16044;52.726;-2.108;2023-03-14T10:31:50;99608.81;;;6.83;73.25
28935;BME280;16044;52.726;-2.108;2023-03-14T10:34:26;99602.91;;;6.80;72.05
28935;BME280;16044;52.726;-2.108;2023-03-14T10:37:18;99608.47;;;6.87;70.88
28935;BME280;16044;52.726;-2.108;2023-03-14T10:39:53;99621.56;;;6.90;71.81
28935;BME280;16044;52.726;-2.108;2023-03-14T10:42:27;99620.91;;;6.96;72.86
28935;BME280;16044;52.726;-2.108;2023-03-14T10:44:59;99624.94;;;6.92;69.19
28935;BME280;16044;52.726;-2.108;2023-03-14T10:47:29;99622.53;;;7.05;71.71
28935;BME280;16044;52.726;-2.108;2023-03-14T10:49:57;99623.69;;;7.11;72.58
28935;BME280;16044;52.726;-2.108;2023-03-14T10:52:49;99629.13;;;7.34;73.36
28935;BME280;16044;52.726;-2.108;2023-03-14T10:55:39;99637.00;;;7.44;72.28
28935;BME280;16044;52.726;-2.108;2023-03-14T10:58:22;99644.84;;;7.53;72.55
28935;BME280;16044;52.726;-2.108;2023-03-14T11:01:00;99649.09;;;7.48;71.60
28935;BME280;16044;52.726;-2.108;2023-03-14T11:03:31;99648.75;;;7.51;71.57
28935;BME280;16044;52.726;-2.108;2023-03-14T11:06:10;99649.28;;;7.46;71.89
28935;BME280;16044;52.726;-2.108;2023-03-14T11:08:46;99643.88;;;7.46;71.22
28935;BME280;16044;52.726;-2.108;2023-03-14T11:11:27;99662.34;;;7.57;71.40
28935;BME280;16044;52.726;-2.108;2023-03-14T11:30:55;99665.75;;;7.83;65.53
28935;BME280;16044;52.726;-2.108;2023-03-14T11:33:28;99670.66;;;7.79;65.87
28935;BME280;16044;52.726;-2.108;2023-03-14T11:36:08;99661.59;;;7.72;64.79
28935;BME280;16044;52.726;-2.108;2023-03-14T11:38:38;99661.22;;;7.75;65.48
28935;BME280;16044;52.726;-2.108;2023-03-14T11:41:14;99666.91;;;7.88;64.42
28935;BME280;16044;52.726;-2.108;2023-03-14T11:43:48;99667.78;;;8.04;63.44
28935;BME280;16044;52.726;-2.108;2023-03-14T11:46:25;99665.03;;;8.12;62.07
28935;BME280;16044;52.726;-2.108;2023-03-14T11:51:46;99665.03;;;8.12;61.74
28935;BME280;16044;52.726;-2.108;2023-03-14T11:54:39;99667.06;;;8.10;61.74
28935;BME280;16044;52.726;-2.108;2023-03-14T11:57:17;99671.50;;;8.03;61.63
28935;BME280;16044;52.726;-2.108;2023-03-14T12:11:18;99675.16;;;8.10;60.97
28935;BME280;16044;52.726;-2.108;2023-03-14T12:13:53;99680.00;;;8.14;60.04
28935;BME280;16044;52.726;-2.108;2023-03-14T12:16:26;99693.44;;;7.99;58.24
28935;BME280;16044;52.726;-2.108;2023-03-14T12:18:57;99694.06;;;8.10;54.44
28935;BME280;16044;52.726;-2.108;2023-03-14T12:21:46;99693.09;;;8.03;54.97
28935;BME280;16044;52.726;-2.108;2023-03-14T12:24:34;99693.81;;;7.96;54.90
28935;BME280;16044;52.726;-2.108;2023-03-14T12:27:05;99690.53;;;8.09;54.15
28935;BME280;16044;52.726;-2.108;2023-03-14T12:29:59;99691.03;;;8.05;55.39
28935;BME280;16044;52.726;-2.108;2023-03-14T12:32:30;99691.25;;;8.26;55.51
28935;BME280;16044;52.726;-2.108;2023-03-14T12:35:07;99693.28;;;8.39;56.01
28935;BME280;16044;52.726;-2.108;2023-03-14T12:38:09;99693.81;;;8.43;52.76
28935;BME280;16044;52.726;-2.108;2023-03-14T12:41:14;99701.41;;;8.39;49.67
28935;BME280;16044;52.726;-2.108;2023-03-14T12:43:46;99687.91;;;8.39;50.63
28935;BME280;16044;52.726;-2.108;2023-03-14T12:51:38;99696.66;;;8.41;49.98
28935;BME280;16044;52.726;-2.108;2023-03-14T12:54:25;99696.63;;;8.49;49.51
28935;BME280;16044;52.726;-2.108;2023-03-14T12:59:56;99696.94;;;8.54;50.04
28935;BME280;16044;52.726;-2.108;2023-03-14T13:02:28;99693.00;;;8.57;49.35
28935;BME280;16044;52.726;-2.108;2023-03-14T13:05:11;99685.94;;;8.71;49.45
28935;BME280;16044;52.726;-2.108;2023-03-14T13:10:23;99685.88;;;8.94;48.50
28935;BME280;16044;52.726;-2.108;2023-03-14T13:13:01;99693.69;;;8.74;47.91
28935;BME280;16044;52.726;-2.108;2023-03-14T13:15:34;99700.88;;;8.82;49.81
28935;BME280;16044;52.726;-2.108;2023-03-14T13:18:16;99696.13;;;8.84;49.13
28935;BME280;16044;52.726;-2.108;2023-03-14T13:26:35;99694.66;;;8.96;50.22
28935;BME280;16044;52.726;-2.108;2023-03-14T13:29:19;99704.44;;;8.97;49.90
28935;BME280;16044;52.726;-2.108;2023-03-14T13:31:50;99705.19;;;8.91;49.87
28935;BME280;16044;52.726;-2.108;2023-03-14T13:34:20;99701.88;;;8.81;47.85
28935;BME280;16044;52.726;-2.108;2023-03-14T13:36:52;99706.34;;;8.58;47.97
28935;BME280;16044;52.726;-2.108;2023-03-14T13:39:21;99708.91;;;8.52;48.34
28935;BME280;16044;52.726;-2.108;2023-03-14T13:41:52;99710.00;;;8.43;48.11
28935;BME280;16044;52.726;-2.108;2023-03-14T13:44:36;99719.25;;;8.25;48.43
28935;BME280;16044;52.726;-2.108;2023-03-14T13:47:10;99725.00;;;8.22;49.16
28935;BME280;16044;52.726;-2.108;2023-03-14T13:49:43;99728.38;;;8.24;49.55
28935;BME280;16044;52.726;-2.108;2023-03-14T13:52:32;99730.28;;;8.38;50.86
28935;BME280;16044;52.726;-2.108;2023-03-14T13:55:03;99715.94;;;8.61;51.02
28935;BME280;16044;52.726;-2.108;2023-03-14T13:57:50;99708.97;;;8.82;50.28
28935;BME280;16044;52.726;-2.108;2023-03-14T14:00:23;99708.44;;;9.01;47.93
28935;BME280;16044;52.726;-2.108;2023-03-14T14:02:55;99706.84;;;9.22;46.86
28935;BME280;16044;52.726;-2.108;2023-03-14T14:05:27;99721.31;;;9.29;44.63
28935;BME280;16044;52.726;-2.108;2023-03-14T14:07:55;99720.25;;;9.30;43.96
28935;BME280;16044;52.726;-2.108;2023-03-14T14:10:25;99726.13;;;9.18;43.23
28935;BME280;16044;52.726;-2.108;2023-03-14T14:12:59;99719.81;;;9.11;42.40
28935;BME280;16044;52.726;-2.108;2023-03-14T14:15:31;99728.28;;;9.08;42.26